Teanaway, Washington
Current Conditions -  °F | °C
As of 8:26 AM on Thursday 30 Oct 2014 (Local Time) from KELN Reporting Station
Light Rain Light Rain  
Wind Chill: 50°   Ceiling: 3200
Heat Index: 50°   Visibility: 2.5mi
Dew Point: 47°   Wind: 0mph
Humidity: 89%   Direction: NA
Pressure: 30.06"   Gusts: NA
Location:  47.3367°N, 121.023°W
Report Text: KELN 301526Z AUTO 00000KT 2 1/2SM -RA BR OVC032 10/08 A3006 RMK AO2 RAB06 P0000 T01000083
Loading
Personal Weather Stations






























Interactive Weather Map
Tropical Storm Tracking
New forecast layout! Learn more

10-Day Weather Forecast

Advertisements
Track Severe Weather on mobile